Time;durP1;ratioP1;P1;durP2;ratioP2;P2;SDS_P1;SDS_P2;PMS_P1;PMS_P2;Temp;Humidity;BMP_temperature;BMP_pressure;BME280_temperature;BME280_humidity;BME280_pressure;Samples;Min_cycle;Max_cycle;Signal;HPM_P1;HPM_P2
2021/11/14 00:00:18;;;;;;;20.25;8.25;;;10.60;99.90;;;;;;5077641;28;20021;-78
2021/11/14 00:02:44;;;;;;;16.35;7.22;;;10.60;99.90;;;;;;5061571;28;20355;-78
2021/11/14 00:05:09;;;;;;;15.93;6.82;;;10.60;99.90;;;;;;5057082;28;20027;-78
2021/11/14 00:07:35;;;;;;;16.80;7.72;;;10.50;99.90;;;;;;5039419;28;20064;-78
2021/11/14 00:10:01;;;;;;;17.98;8.48;;;10.50;99.90;;;;;;5039517;28;20048;-78
2021/11/14 00:12:26;;;;;;;19.17;7.55;;;10.50;99.90;;;;;;5057182;28;20025;-78
2021/11/14 00:14:52;;;;;;;21.92;8.60;;;10.50;99.90;;;;;;5048099;28;20029;-78
2021/11/14 00:17:18;;;;;;;19.45;7.65;;;10.50;99.90;;;;;;5060186;28;20029;-77
2021/11/14 00:19:43;;;;;;;21.63;9.10;;;10.50;99.90;;;;;;5038156;28;20068;-76
2021/11/14 00:22:09;;;;;;;16.65;7.60;;;10.50;99.90;;;;;;5056038;28;20083;-76
2021/11/14 00:24:34;;;;;;;18.70;8.13;;;10.50;99.90;;;;;;5056061;28;20059;-77
2021/11/14 00:27:00;;;;;;;20.33;7.85;;;10.50;99.90;;;;;;5038755;28;20048;-78
2021/11/14 00:29:25;;;;;;;19.27;7.68;;;10.50;99.90;;;;;;5038580;28;20021;-78
2021/11/14 00:31:51;;;;;;;13.25;6.90;;;10.50;99.90;;;;;;5056426;28;20029;-77
2021/11/14 00:34:16;;;;;;;13.77;6.57;;;10.40;99.90;;;;;;5055932;28;20469;-77
2021/11/14 00:36:43;;;;;;;16.42;7.63;;;10.40;99.90;;;;;;5068043;28;20367;-77
2021/11/14 00:39:16;;;;;;;15.63;7.70;;;10.40;99.90;;;;;;5075907;28;20024;-76
2021/11/14 00:41:42;;;;;;;28.00;8.57;;;10.40;99.90;;;;;;5075536;28;20107;-77
2021/11/14 00:44:08;;;;;;;16.90;7.70;;;10.30;99.90;;;;;;5075660;28;20024;-77
2021/11/14 00:46:34;;;;;;;16.27;7.30;;;10.30;99.90;;;;;;5063004;28;20315;-77
2021/11/14 00:48:59;;;;;;;19.95;7.32;;;10.30;99.90;;;;;;5059047;28;20036;-77
2021/11/14 00:51:29;;;;;;;16.08;7.40;;;10.20;99.90;;;;;;5068974;28;20025;-77
2021/11/14 00:54:00;;;;;;;17.02;7.78;;;10.20;99.90;;;;;;5075833;28;20163;-78
2021/11/14 00:56:27;;;;;;;24.00;7.40;;;10.20;99.90;;;;;;5076345;28;20025;-78
2021/11/14 00:58:53;;;;;;;15.65;6.82;;;10.20;99.90;;;;;;5076770;28;20096;-78
2021/11/14 01:01:20;;;;;;;17.83;7.47;;;10.20;99.90;;;;;;5065970;28;20025;-79
2021/11/14 01:03:46;;;;;;;20.98;7.97;;;10.20;99.90;;;;;;5038961;28;20029;-79
2021/11/14 01:06:12;;;;;;;16.05;7.13;;;10.20;99.90;;;;;;5038832;28;20033;-78
2021/11/14 01:08:37;;;;;;;18.13;8.32;;;10.10;99.90;;;;;;5056230;28;20025;-78
2021/11/14 01:11:04;;;;;;;16.05;6.97;;;10.10;99.90;;;;;;5063710;28;20123;-78
2021/11/14 01:13:31;;;;;;;23.65;7.60;;;10.10;99.90;;;;;;5057876;28;20032;-77
2021/11/14 01:15:58;;;;;;;22.17;8.48;;;10.10;99.90;;;;;;5075062;28;20470;-76
2021/11/14 01:18:23;;;;;;;15.15;6.95;;;10.10;99.90;;;;;;5074952;28;20028;-76
2021/11/14 01:20:53;;;;;;;15.55;7.40;;;10.10;99.90;;;;;;5057608;28;20029;-78
2021/11/14 01:23:20;;;;;;;20.85;7.93;;;10.10;99.90;;;;;;5058176;28;20078;-78
2021/11/14 01:25:46;;;;;;;15.63;6.82;;;10.10;99.90;;;;;;5054178;28;20032;-76
2021/11/14 01:28:12;;;;;;;18.27;7.40;;;10.20;99.90;;;;;;5056821;28;20565;-76
2021/11/14 01:30:41;;;;;;;15.57;7.00;;;10.20;99.90;;;;;;5056509;28;20477;-78
2021/11/14 01:33:08;;;;;;;17.83;7.80;;;10.20;99.90;;;;;;5057990;28;20064;-78
2021/11/14 01:35:35;;;;;;;15.43;6.70;;;10.20;99.90;;;;;;5075528;28;20032;-77
2021/11/14 01:38:04;;;;;;;19.20;7.35;;;10.20;99.90;;;;;;5074795;28;20027;-77
2021/11/14 01:40:33;;;;;;;19.25;7.82;;;10.30;99.90;;;;;;5074019;28;20458;-77
2021/11/14 01:42:59;;;;;;;15.65;7.32;;;10.20;99.90;;;;;;5074850;28;20099;-77
2021/11/14 01:45:26;;;;;;;19.55;8.57;;;10.30;99.90;;;;;;5056359;28;20554;-77
2021/11/14 01:47:51;;;;;;;20.20;7.70;;;10.30;99.90;;;;;;5056164;28;20106;-77
2021/11/14 01:50:18;;;;;;;18.42;7.60;;;10.30;99.90;;;;;;5073399;28;20025;-77
2021/11/14 01:52:46;;;;;;;16.52;7.47;;;10.30;99.90;;;;;;5054343;28;20032;-77
2021/11/14 01:55:15;;;;;;;19.10;7.53;;;10.30;99.90;;;;;;5054770;28;20025;-77
2021/11/14 01:57:40;;;;;;;25.77;7.82;;;10.30;99.90;;;;;;5054269;28;20024;-77
2021/11/14 02:00:12;;;;;;;19.40;7.57;;;10.30;99.90;;;;;;5054154;28;20021;-77
2021/11/14 02:02:38;;;;;;;15.27;7.30;;;10.30;99.90;;;;;;5074312;28;20055;-77
2021/11/14 02:05:05;;;;;;;17.25;7.53;;;10.30;99.90;;;;;;5074036;28;20032;-77
2021/11/14 02:07:32;;;;;;;20.65;8.20;;;10.30;99.90;;;;;;5073705;28;20133;-77
2021/11/14 02:09:58;;;;;;;15.88;7.28;;;10.30;99.90;;;;;;5074029;28;20024;-77
2021/11/14 02:12:23;;;;;;;18.92;8.18;;;10.30;99.90;;;;;;5038815;28;20078;-77
2021/11/14 02:14:49;;;;;;;18.92;8.27;;;10.20;99.90;;;;;;5053997;28;20021;-76
2021/11/14 02:17:15;;;;;;;17.90;8.02;;;10.20;99.90;;;;;;5036202;28;20021;-75
2021/11/14 02:19:40;;;;;;;14.00;6.97;;;10.20;99.90;;;;;;5056148;28;20092;-75
2021/11/14 02:22:06;;;;;;;20.15;7.68;;;10.20;99.90;;;;;;5074259;28;20088;-77
2021/11/14 02:24:38;;;;;;;18.52;6.78;;;10.20;99.90;;;;;;5065646;28;20033;-76
2021/11/14 02:27:04;;;;;;;17.27;7.57;;;10.20;99.90;;;;;;5055884;28;20036;-76
2021/11/14 02:29:30;;;;;;;20.45;7.32;;;10.20;99.90;;;;;;5070682;28;20470;-76
2021/11/14 02:31:55;;;;;;;18.70;8.02;;;10.20;99.90;;;;;;5053832;28;20044;-76
2021/11/14 02:34:21;;;;;;;16.13;7.50;;;10.20;99.90;;;;;;5054442;28;20029;-76
2021/11/14 02:36:47;;;;;;;15.60;6.93;;;10.20;99.90;;;;;;5073692;28;20376;-77
2021/11/14 02:39:12;;;;;;;16.27;7.20;;;10.20;99.90;;;;;;5072057;28;20040;-75
2021/11/14 02:41:38;;;;;;;19.63;7.45;;;10.20;99.90;;;;;;5035390;28;20040;-75
2021/11/14 02:44:04;;;;;;;21.95;7.28;;;10.20;99.90;;;;;;5053036;28;20477;-75
2021/11/14 02:46:29;;;;;;;16.85;7.90;;;10.20;99.90;;;;;;5053441;28;20025;-75
2021/11/14 02:48:55;;;;;;;17.60;8.32;;;10.20;99.90;;;;;;5036215;28;20024;-75
2021/11/14 02:51:23;;;;;;;17.70;7.10;;;10.20;99.90;;;;;;5035454;28;20036;-75
2021/11/14 02:53:51;;;;;;;16.83;7.40;;;10.20;99.90;;;;;;5035447;28;20432;-75
2021/11/14 02:56:16;;;;;;;18.65;7.80;;;10.20;99.90;;;;;;5070619;28;20035;-75
2021/11/14 02:58:43;;;;;;;16.40;6.45;;;10.20;99.90;;;;;;5054459;28;20024;-75
2021/11/14 03:01:14;;;;;;;15.43;6.80;;;10.20;99.90;;;;;;5055087;28;20553;-75
2021/11/14 03:03:41;;;;;;;21.23;7.50;;;10.20;99.90;;;;;;5073238;28;20065;-75
2021/11/14 03:06:09;;;;;;;17.58;7.40;;;10.20;99.90;;;;;;5038750;28;20559;-75
2021/11/14 03:08:35;;;;;;;19.35;7.28;;;10.20;99.90;;;;;;5053660;28;20025;-75
2021/11/14 03:11:01;;;;;;;18.83;6.88;;;10.20;99.90;;;;;;5053509;28;20064;-76
2021/11/14 03:13:27;;;;;;;17.42;7.10;;;10.20;99.90;;;;;;5053460;28;20473;-75
2021/11/14 03:15:59;;;;;;;16.77;6.10;;;10.20;99.90;;;;;;5049863;28;20048;-78
2021/11/14 03:18:26;;;;;;;16.73;7.05;;;10.20;99.90;;;;;;5055351;28;20027;-76
2021/11/14 03:20:53;;;;;;;18.20;8.00;;;10.20;99.90;;;;;;5074238;28;20025;-78
2021/11/14 03:23:21;;;;;;;15.63;6.05;;;10.20;99.90;;;;;;5077178;28;20032;-78
2021/11/14 03:25:47;;;;;;;12.75;6.05;;;10.20;99.90;;;;;;5045454;28;20016;-78
2021/11/14 03:28:14;;;;;;;13.15;6.57;;;10.20;99.90;;;;;;5059197;28;20025;-80
2021/11/14 03:30:40;;;;;;;14.30;6.72;;;10.10;99.90;;;;;;5055587;28;20033;-79
2021/11/14 03:33:09;;;;;;;16.85;7.53;;;10.20;99.90;;;;;;5056338;28;20028;-79
2021/11/14 03:35:40;;;;;;;18.67;7.70;;;10.20;99.90;;;;;;5067290;28;20036;-79
2021/11/14 03:38:06;;;;;;;20.77;7.55;;;10.20;99.90;;;;;;5057410;28;20067;-79
2021/11/14 03:40:32;;;;;;;20.08;7.32;;;10.10;99.90;;;;;;5073960;28;20024;-78
2021/11/14 03:42:57;;;;;;;20.95;9.10;;;10.20;99.90;;;;;;5056554;28;20381;-79
2021/11/14 03:45:23;;;;;;;21.88;10.77;;;10.20;99.90;;;;;;5064709;28;20115;-79
2021/11/14 03:47:49;;;;;;;21.63;8.25;;;10.20;99.90;;;;;;5054481;28;20036;-78
2021/11/14 03:50:14;;;;;;;19.55;7.32;;;10.20;99.90;;;;;;5035858;28;20032;-78
2021/11/14 03:52:44;;;;;;;17.55;7.53;;;10.20;99.90;;;;;;5055315;28;20025;-78
2021/11/14 03:55:11;;;;;;;19.85;7.85;;;10.20;99.90;;;;;;5044242;28;20032;-77
2021/11/14 03:57:41;;;;;;;16.98;7.13;;;10.20;99.90;;;;;;5073943;28;20057;-77
2021/11/14 04:00:17;;;;;;;16.17;6.72;;;10.20;99.90;;;;;;5073109;28;20099;-77
2021/11/14 04:02:44;;;;;;;16.88;6.40;;;10.20;99.90;;;;;;5073652;28;20468;-77
2021/11/14 04:05:09;;;;;;;17.27;7.20;;;10.20;99.90;;;;;;5074018;28;20108;-79
2021/11/14 04:07:35;;;;;;;17.05;6.78;;;10.20;99.90;;;;;;5056989;28;20060;-79
2021/11/14 04:10:01;;;;;;;18.15;7.85;;;10.10;99.90;;;;;;5075551;28;20029;-79
2021/11/14 04:12:27;;;;;;;16.92;6.80;;;10.20;99.90;;;;;;5078792;28;20060;-79
2021/11/14 04:14:52;;;;;;;17.00;7.20;;;10.10;99.90;;;;;;5054058;28;20427;-78
2021/11/14 04:17:18;;;;;;;20.15;8.30;;;10.10;99.90;;;;;;5058500;28;20061;-78
2021/11/14 04:19:43;;;;;;;17.27;6.40;;;10.10;99.90;;;;;;5040456;28;20116;-78
2021/11/14 04:22:09;;;;;;;20.70;7.78;;;10.10;99.90;;;;;;5058861;28;20050;-78
2021/11/14 04:24:34;;;;;;;17.83;7.22;;;10.10;99.90;;;;;;5054656;28;20078;-78
2021/11/14 04:27:00;;;;;;;25.40;9.45;;;10.10;99.90;;;;;;5078556;28;20043;-79
2021/11/14 04:29:26;;;;;;;19.10;7.70;;;10.20;99.90;;;;;;5058581;28;20113;-77
2021/11/14 04:31:51;;;;;;;24.92;8.30;;;10.10;99.90;;;;;;5058612;28;20033;-77
2021/11/14 04:34:17;;;;;;;19.70;7.65;;;10.20;99.90;;;;;;5060627;28;20090;-77
2021/11/14 04:36:43;;;;;;;20.55;6.97;;;10.20;99.90;;;;;;5038737;28;20064;-77
2021/11/14 04:39:08;;;;;;;20.92;8.20;;;10.10;99.90;;;;;;5051969;28;20031;-77
2021/11/14 04:41:34;;;;;;;17.00;7.82;;;10.10;99.90;;;;;;5059581;28;20433;-79
2021/11/14 04:43:59;;;;;;;18.13;7.60;;;10.10;99.90;;;;;;5065242;28;20417;-79
2021/11/14 04:46:25;;;;;;;20.02;9.38;;;10.10;99.90;;;;;;5058627;28;20017;-79
2021/11/14 04:48:50;;;;;;;22.55;9.23;;;10.10;99.90;;;;;;5040140;28;20024;-79
2021/11/14 04:51:16;;;;;;;19.17;8.60;;;10.10;99.90;;;;;;5041794;28;20033;-78
2021/11/14 04:53:42;;;;;;;18.63;7.10;;;10.10;99.90;;;;;;5068461;28;20029;-78
2021/11/14 04:56:07;;;;;;;20.70;8.82;;;10.10;99.90;;;;;;5058743;28;20067;-79
2021/11/14 04:58:33;;;;;;;18.80;8.02;;;10.10;99.90;;;;;;5076462;28;20078;-78
2021/11/14 05:00:59;;;;;;;18.27;8.00;;;10.10;99.90;;;;;;5076326;28;20048;-78
2021/11/14 05:03:25;;;;;;;17.50;8.35;;;10.10;99.90;;;;;;5058567;28;20016;-78
2021/11/14 05:05:50;;;;;;;26.55;9.50;;;10.00;99.90;;;;;;5075772;28;20062;-79
2021/11/14 05:08:16;;;;;;;23.48;8.10;;;10.10;99.90;;;;;;5075312;28;20028;-76
2021/11/14 05:10:43;;;;;;;23.48;8.73;;;10.10;99.90;;;;;;5057361;28;20028;-76
2021/11/14 05:13:09;;;;;;;21.85;9.27;;;10.10;99.90;;;;;;5066164;28;20025;-76
2021/11/14 05:15:35;;;;;;;21.80;9.02;;;10.10;99.90;;;;;;5055146;28;20074;-78
2021/11/14 05:18:01;;;;;;;27.55;10.35;;;10.10;99.90;;;;;;5037515;28;20393;-77
2021/11/14 05:20:27;;;;;;;21.65;9.35;;;10.10;99.90;;;;;;5037192;28;20429;-79
2021/11/14 05:22:52;;;;;;;29.27;10.80;;;10.00;99.90;;;;;;5061187;28;20020;-76
2021/11/14 05:25:18;;;;;;;27.80;10.80;;;10.00;99.90;;;;;;5057118;28;20036;-77
2021/11/14 05:27:44;;;;;;;26.33;10.48;;;10.10;99.90;;;;;;5075803;28;20033;-78
2021/11/14 05:30:10;;;;;;;23.67;9.68;;;10.00;99.90;;;;;;5057630;28;20126;-78
2021/11/14 05:32:37;;;;;;;25.63;9.90;;;10.00;99.90;;;;;;5075117;28;20107;-78
2021/11/14 05:35:03;;;;;;;27.13;10.00;;;10.10;99.90;;;;;;5075470;28;20029;-78
2021/11/14 05:37:29;;;;;;;24.48;8.25;;;10.00;99.90;;;;;;5074660;28;20021;-79
2021/11/14 05:39:55;;;;;;;30.98;10.40;;;10.00;99.90;;;;;;5055499;28;20411;-79
2021/11/14 05:42:20;;;;;;;22.98;9.30;;;10.00;99.90;;;;;;5055966;28;20029;-78
2021/11/14 05:44:46;;;;;;;25.48;9.68;;;10.00;99.90;;;;;;5058340;28;20029;-78
2021/11/14 05:47:12;;;;;;;22.92;8.90;;;9.90;99.90;;;;;;5075712;28;20371;-78
2021/11/14 05:49:37;;;;;;;25.17;9.82;;;10.00;99.90;;;;;;5056720;28;20389;-77
2021/11/14 05:52:03;;;;;;;29.25;9.60;;;10.00;99.90;;;;;;5056924;28;20020;-79
2021/11/14 05:54:29;;;;;;;25.13;10.85;;;9.90;99.90;;;;;;5055856;28;20033;-79
2021/11/14 05:56:56;;;;;;;25.33;9.90;;;10.00;99.90;;;;;;5055363;28;20017;-78
2021/11/14 06:01:57;;;;;;;30.40;10.55;;;9.90;99.90;;;;;;5054527;28;20060;-77
2021/11/14 06:06:48;;;;;;;24.55;10.07;;;9.90;99.90;;;;;;5074223;28;20028;-77
2021/11/14 06:09:14;;;;;;;30.70;11.50;;;9.90;99.90;;;;;;5055985;28;20032;-77
2021/11/14 06:11:40;;;;;;;31.80;11.13;;;9.90;99.90;;;;;;5073987;28;20096;-77
2021/11/14 06:14:06;;;;;;;27.92;11.15;;;9.90;99.90;;;;;;5074052;28;20028;-77
2021/11/14 06:16:31;;;;;;;27.98;10.90;;;9.90;99.90;;;;;;5074443;28;20150;-77
2021/11/14 06:18:57;;;;;;;25.95;10.32;;;9.90;99.90;;;;;;5055563;28;20044;-77
2021/11/14 06:21:23;;;;;;;28.95;11.18;;;9.90;99.90;;;;;;5056435;28;20016;-75
2021/11/14 06:23:51;;;;;;;30.17;11.10;;;9.90;99.90;;;;;;5043343;28;20107;-76
2021/11/14 06:26:17;;;;;;;34.22;12.30;;;9.90;99.90;;;;;;5053658;28;20029;-77
2021/11/14 06:28:42;;;;;;;31.52;11.82;;;9.90;99.90;;;;;;5054704;28;20036;-78
2021/11/14 06:31:08;;;;;;;32.47;11.60;;;9.90;99.90;;;;;;5053972;28;20035;-79
2021/11/14 06:33:34;;;;;;;34.70;12.82;;;9.90;99.90;;;;;;5053862;28;20024;-76
2021/11/14 06:35:59;;;;;;;31.80;11.82;;;9.90;99.90;;;;;;5053718;28;20036;-76
2021/11/14 06:38:25;;;;;;;29.05;11.93;;;9.90;99.90;;;;;;5072612;28;20028;-77
2021/11/14 06:40:50;;;;;;;31.17;11.65;;;9.90;99.90;;;;;;5055916;28;20052;-77
2021/11/14 06:43:16;;;;;;;32.55;11.77;;;9.90;99.90;;;;;;5072276;28;20024;-76
2021/11/14 06:45:42;;;;;;;32.53;12.70;;;9.90;99.90;;;;;;5073503;28;20507;-77
2021/11/14 06:48:08;;;;;;;38.53;12.75;;;9.90;99.90;;;;;;5050260;28;20030;-77
2021/11/14 06:50:34;;;;;;;36.03;13.18;;;9.90;99.90;;;;;;5055534;28;20128;-75
2021/11/14 06:53:00;;;;;;;34.85;12.25;;;9.90;99.90;;;;;;5053929;28;20515;-75
2021/11/14 06:55:25;;;;;;;30.75;11.35;;;9.90;99.90;;;;;;5073285;28;20021;-75
2021/11/14 06:57:51;;;;;;;34.03;12.88;;;9.90;99.90;;;;;;5059477;28;20025;-76
2021/11/14 07:00:20;;;;;;;33.60;12.73;;;9.90;99.90;;;;;;5053467;28;20099;-76
2021/11/14 07:02:46;;;;;;;32.72;11.23;;;9.90;99.90;;;;;;5035335;28;20551;-75
2021/11/14 07:05:12;;;;;;;33.33;12.15;;;9.90;99.90;;;;;;5035288;28;20114;-75
2021/11/14 07:07:39;;;;;;;35.85;12.75;;;9.90;99.90;;;;;;5063678;28;20032;-77
2021/11/14 07:10:07;;;;;;;34.95;11.95;;;9.90;99.90;;;;;;5054920;28;20056;-76
2021/11/14 07:12:34;;;;;;;42.90;14.35;;;9.90;99.90;;;;;;5054969;28;20481;-76
2021/11/14 07:14:59;;;;;;;37.40;12.98;;;9.90;99.90;;;;;;5073266;28;20028;-76
2021/11/14 07:17:26;;;;;;;35.90;12.35;;;9.90;99.90;;;;;;5062952;28;20086;-76
2021/11/14 07:19:52;;;;;;;34.55;12.70;;;9.90;99.90;;;;;;5035366;28;20073;-78
2021/11/14 07:22:18;;;;;;;35.13;12.02;;;9.90;99.90;;;;;;5035880;28;20505;-76
2021/11/14 07:24:43;;;;;;;40.25;12.95;;;9.90;99.90;;;;;;5035231;28;20135;-75
2021/11/14 07:27:09;;;;;;;38.58;13.48;;;9.90;99.90;;;;;;5036770;28;20033;-77
2021/11/14 07:29:35;;;;;;;36.03;12.35;;;9.90;99.90;;;;;;5053918;28;20182;-78
2021/11/14 07:32:00;;;;;;;35.80;13.82;;;9.90;99.90;;;;;;5054542;28;20100;-76
2021/11/14 07:34:26;;;;;;;37.25;14.00;;;9.90;99.90;;;;;;5053556;28;20032;-76
2021/11/14 07:36:51;;;;;;;39.38;13.63;;;9.90;99.90;;;;;;5070897;28;20020;-76
2021/11/14 07:39:17;;;;;;;40.05;13.20;;;9.90;99.90;;;;;;5055040;28;20028;-76
2021/11/14 07:41:44;;;;;;;36.80;12.40;;;9.90;99.90;;;;;;5054794;28;20090;-76
2021/11/14 07:44:10;;;;;;;38.13;13.90;;;10.00;99.90;;;;;;5055036;28;20071;-76
2021/11/14 07:46:35;;;;;;;38.90;13.02;;;9.90;99.90;;;;;;5074749;28;20032;-76
2021/11/14 07:49:01;;;;;;;41.88;14.13;;;10.00;99.90;;;;;;5076920;28;20020;-76
2021/11/14 07:51:27;;;;;;;37.85;14.15;;;10.00;99.90;;;;;;5077260;28;20025;-76
2021/11/14 07:53:53;;;;;;;38.65;12.40;;;10.00;99.90;;;;;;5076974;28;20029;-77
2021/11/14 07:56:18;;;;;;;36.17;12.80;;;10.00;99.90;;;;;;5076200;28;20051;-77
2021/11/14 07:58:44;;;;;;;34.90;12.43;;;11.40;99.90;;;;;;5066198;28;20486;-77
2021/11/14 08:01:10;;;;;;;36.25;12.30;;;10.00;99.90;;;;;;5056720;28;20470;-78
2021/11/14 08:03:36;;;;;;;40.10;14.07;;;10.00;99.90;;;;;;5075487;28;20024;-78
2021/11/14 08:06:02;;;;;;;34.25;12.40;;;10.00;99.90;;;;;;5076860;28;20076;-78
2021/11/14 08:08:28;;;;;;;36.35;12.88;;;10.00;99.90;;;;;;5070253;28;20408;-78
2021/11/14 08:10:54;;;;;;;37.58;13.75;;;10.10;99.90;;;;;;5039352;28;20090;-78
2021/11/14 08:13:21;;;;;;;39.33;12.98;;;10.00;99.90;;;;;;5039091;28;20485;-77
2021/11/14 08:15:47;;;;;;;38.40;12.75;;;10.10;99.90;;;;;;5038507;28;20024;-77
2021/11/14 08:18:14;;;;;;;38.60;12.65;;;10.10;99.90;;;;;;5060176;28;20020;-77
2021/11/14 08:20:39;;;;;;;37.03;12.23;;;10.10;99.90;;;;;;5077060;28;20043;-77
2021/11/14 08:23:06;;;;;;;33.13;12.40;;;10.10;99.90;;;;;;5056710;28;20033;-78
2021/11/14 08:25:33;;;;;;;40.70;14.27;;;10.20;99.90;;;;;;5038804;28;20032;-77
2021/11/14 08:28:00;;;;;;;37.65;13.52;;;10.20;99.90;;;;;;5057928;28;20478;-77
2021/11/14 08:30:26;;;;;;;36.25;14.15;;;10.20;99.90;;;;;;5073468;28;20029;-78
2021/11/14 08:32:52;;;;;;;33.42;12.38;;;10.20;99.90;;;;;;5075579;28;20036;-77
2021/11/14 08:35:20;;;;;;;35.00;13.68;;;10.20;99.90;;;;;;5058074;28;20103;-77
2021/11/14 08:37:47;;;;;;;44.13;13.63;;;10.20;99.90;;;;;;5056538;28;20045;-77
2021/11/14 08:40:15;;;;;;;35.75;13.10;;;10.30;99.90;;;;;;5056171;28;20030;-77
2021/11/14 08:42:40;;;;;;;35.03;12.85;;;10.30;99.90;;;;;;5058074;28;20021;-78
2021/11/14 08:45:08;;;;;;;35.15;13.15;;;10.30;99.90;;;;;;5076083;28;20029;-78
2021/11/14 08:47:33;;;;;;;35.97;13.05;;;10.30;99.90;;;;;;5056173;28;20037;-78
2021/11/14 08:50:00;;;;;;;33.80;12.13;;;10.30;99.90;;;;;;5056144;28;20037;-77
2021/11/14 08:52:27;;;;;;;35.17;12.35;;;10.40;99.90;;;;;;5037721;28;20363;-76
2021/11/14 08:54:52;;;;;;;38.28;13.38;;;10.40;99.90;;;;;;5055357;28;20020;-76
2021/11/14 08:57:19;;;;;;;35.78;13.32;;;10.40;99.90;;;;;;5053034;28;20017;-76
2021/11/14 08:59:46;;;;;;;36.10;12.68;;;10.40;99.90;;;;;;5057324;28;20020;-76
2021/11/14 09:02:12;;;;;;;31.35;11.60;;;10.50;99.90;;;;;;5075391;28;20020;-77
2021/11/14 09:04:38;;;;;;;34.70;12.98;;;10.50;99.90;;;;;;5057884;28;20024;-77
2021/11/14 09:07:04;;;;;;;36.25;12.90;;;10.50;99.90;;;;;;5060034;28;20024;-76
2021/11/14 09:09:29;;;;;;;35.15;12.90;;;10.50;99.90;;;;;;5037303;28;20049;-76
2021/11/14 09:11:55;;;;;;;31.73;11.32;;;10.50;99.90;;;;;;5037350;28;20474;-76
2021/11/14 09:14:22;;;;;;;37.88;12.65;;;10.50;99.90;;;;;;5055079;28;20029;-76
2021/11/14 09:16:51;;;;;;;31.10;12.00;;;10.50;99.90;;;;;;5067914;28;20025;-78
2021/11/14 09:19:17;;;;;;;36.22;12.80;;;10.50;99.90;;;;;;5074957;28;20028;-77
2021/11/14 09:21:43;;;;;;;29.13;11.38;;;10.50;99.90;;;;;;5057004;28;20028;-77
2021/11/14 09:24:09;;;;;;;29.65;10.93;;;10.50;99.90;;;;;;5074645;28;20115;-76
2021/11/14 09:26:35;;;;;;;30.65;11.35;;;10.50;99.90;;;;;;5063912;28;20090;-76
2021/11/14 09:29:01;;;;;;;29.35;11.48;;;10.60;99.90;;;;;;5054699;28;20021;-76
2021/11/14 09:31:27;;;;;;;31.73;11.75;;;10.50;99.90;;;;;;5054895;28;20035;-76
2021/11/14 09:33:54;;;;;;;29.55;11.35;;;10.60;99.90;;;;;;5054671;28;20025;-75
2021/11/14 09:36:21;;;;;;;29.52;10.93;;;10.60;99.90;;;;;;5062908;28;20031;-78
2021/11/14 09:38:47;;;;;;;24.88;9.80;;;10.70;99.90;;;;;;5075063;28;20054;-77
2021/11/14 09:41:13;;;;;;;26.02;9.38;;;10.80;99.90;;;;;;5067228;28;20033;-76
2021/11/14 09:43:38;;;;;;;29.52;10.35;;;10.80;99.90;;;;;;5036763;28;20421;-76
2021/11/14 09:46:05;;;;;;;24.85;9.35;;;10.90;99.90;;;;;;5059957;28;20098;-76
2021/11/14 09:48:31;;;;;;;22.55;8.50;;;10.90;99.90;;;;;;5074806;28;20021;-77
2021/11/14 09:50:58;;;;;;;18.30;7.75;;;10.90;99.90;;;;;;5056594;28;20086;-76
2021/11/14 09:53:30;;;;;;;19.65;7.63;;;11.00;99.90;;;;;;5074206;28;20024;-76
2021/11/14 09:55:58;;;;;;;18.05;7.07;;;11.00;99.90;;;;;;5072421;28;20027;-76
2021/11/14 09:58:24;;;;;;;17.63;6.72;;;11.00;99.90;;;;;;5074214;28;20151;-77
2021/11/14 10:00:50;;;;;;;20.35;6.53;;;11.00;99.90;;;;;;5056700;28;20488;-76
2021/11/14 10:03:16;;;;;;;19.00;7.25;;;11.00;99.90;;;;;;5074810;28;20154;-78
2021/11/14 10:05:42;;;;;;;17.75;6.07;;;11.00;99.90;;;;;;5056342;28;20056;-77
2021/11/14 10:08:09;;;;;;;19.85;7.53;;;11.10;99.90;;;;;;5074492;28;20035;-76
2021/11/14 10:11:00;;;;;;;15.48;6.75;;;11.10;99.90;;;;;;5074030;28;20074;-76
2021/11/14 10:13:29;;;;;;;17.70;6.38;;;11.10;99.90;;;;;;5066157;28;20505;-76
2021/11/14 10:16:12;;;;;;;16.38;6.15;;;11.10;99.90;;;;;;5036138;28;20110;-77
2021/11/14 10:18:40;;;;;;;19.13;6.20;;;11.00;99.90;;;;;;5035991;28;20021;-77
2021/11/14 10:21:06;;;;;;;17.17;6.70;;;11.10;99.90;;;;;;5037598;28;20021;-78
2021/11/14 10:23:37;;;;;;;17.63;6.60;;;11.10;99.90;;;;;;5074551;28;20028;-78
2021/11/14 10:26:06;;;;;;;18.85;6.70;;;11.10;99.90;;;;;;5056686;28;20473;-76
2021/11/14 10:28:33;;;;;;;17.05;6.47;;;11.10;99.90;;;;;;5073702;28;20104;-77
2021/11/14 10:30:59;;;;;;;17.58;6.43;;;11.00;99.90;;;;;;5074098;28;20032;-77
2021/11/14 10:33:25;;;;;;;19.50;7.03;;;11.00;99.90;;;;;;5073912;28;20094;-77
2021/11/14 10:35:55;;;;;;;16.15;6.35;;;10.90;99.90;;;;;;5065399;28;20016;-77
2021/11/14 10:38:27;;;;;;;16.42;6.60;;;11.00;99.90;;;;;;5055616;28;20028;-78
2021/11/14 10:41:00;;;;;;;16.58;6.60;;;11.00;99.90;;;;;;5073044;28;20130;-77
2021/11/14 10:43:28;;;;;;;17.98;6.95;;;11.00;99.90;;;;;;5056069;28;20534;-77
2021/11/14 10:45:55;;;;;;;18.73;6.75;;;11.00;99.90;;;;;;5054017;28;20024;-77
2021/11/14 10:48:24;;;;;;;19.55;7.47;;;11.00;99.90;;;;;;5075330;28;20081;-79
2021/11/14 10:50:55;;;;;;;22.85;7.75;;;11.10;99.90;;;;;;5073875;28;20085;-81
2021/11/14 10:53:24;;;;;;;24.80;7.15;;;11.00;99.90;;;;;;5058582;28;20032;-81
2021/11/14 10:55:52;;;;;;;;;;;11.10;99.90;;;;;;5056296;28;20021;-78
2021/11/14 10:58:20;;;;;;;16.67;6.75;;;11.00;99.90;;;;;;5075746;28;19905;-80
2021/11/14 11:00:49;;;;;;;18.95;7.47;;;11.00;99.90;;;;;;5056022;28;20411;-78
2021/11/14 11:03:15;;;;;;;16.58;6.55;;;11.00;99.90;;;;;;5074448;28;20031;-78
2021/11/14 11:05:42;;;;;;;21.58;8.25;;;11.10;99.90;;;;;;5055250;28;20478;-77
2021/11/14 11:08:17;;;;;;;17.23;6.93;;;11.00;99.90;;;;;;5073660;28;20099;-77
2021/11/14 11:10:48;;;;;;;17.15;6.50;;;11.10;99.90;;;;;;5055344;28;20024;-76
2021/11/14 11:13:28;;;;;;;17.33;7.07;;;11.10;99.90;;;;;;5056322;28;20077;-78
2021/11/14 11:15:54;;;;;;;17.58;6.97;;;11.10;99.90;;;;;;5068420;28;20470;-80
2021/11/14 11:18:22;;;;;;;18.33;6.93;;;11.10;99.90;;;;;;5038061;28;20078;-80
2021/11/14 11:20:58;;;;;;;18.27;6.78;;;11.10;99.90;;;;;;5060813;28;20078;-79
2021/11/14 11:23:25;;;;;;;18.02;7.13;;;11.20;99.90;;;;;;5058211;28;20029;-77
2021/11/14 11:25:54;;;;;;;19.50;8.18;;;11.30;99.90;;;;;;5041148;28;20410;-77
2021/11/14 11:28:31;;;;;;;18.10;7.90;;;11.30;99.90;;;;;;5041117;28;20057;-78
2021/11/14 11:31:22;;;;;;;20.25;6.93;;;11.30;99.90;;;;;;5065482;28;20031;-78
2021/11/14 11:33:50;;;;;;;19.83;7.88;;;11.30;99.90;;;;;;5060040;28;20029;-78
2021/11/14 11:36:17;;;;;;;17.98;6.53;;;11.20;99.90;;;;;;5076911;28;20078;-77
2021/11/14 11:38:45;;;;;;;19.00;7.75;;;11.30;99.90;;;;;;5078537;28;20377;-79
2021/11/14 11:41:13;;;;;;;20.98;7.80;;;11.30;99.90;;;;;;5066512;28;20029;-79
2021/11/14 11:43:40;;;;;;;24.98;9.27;;;11.80;99.90;;;;;;5064940;28;20385;-78
2021/11/14 11:46:16;;;;;;;17.52;7.55;;;11.30;99.90;;;;;;5061084;28;20039;-79
2021/11/14 11:48:47;;;;;;;17.67;6.57;;;11.30;99.90;;;;;;5067874;28;20029;-80
2021/11/14 11:51:28;;;;;;;19.67;7.88;;;11.30;99.90;;;;;;5068305;28;20031;-79
2021/11/14 11:54:04;;;;;;;16.95;7.10;;;11.30;99.90;;;;;;5064596;28;20047;-79
2021/11/14 11:56:56;;;;;;;17.35;6.63;;;11.30;99.90;;;;;;5074822;28;20039;-80
2021/11/14 11:59:34;;;;;;;18.38;7.25;;;11.30;99.90;;;;;;5037807;28;20068;-79
2021/11/14 12:02:07;;;;;;;18.08;7.05;;;11.20;99.90;;;;;;5066550;28;20021;-80
2021/11/14 12:04:39;;;;;;;16.98;7.28;;;11.30;99.90;;;;;;5066829;28;20044;-79
2021/11/14 12:07:06;;;;;;;16.08;6.85;;;11.30;99.90;;;;;;5047919;28;20496;-76
2021/11/14 12:09:47;;;;;;;15.73;6.38;;;11.30;99.90;;;;;;5056534;28;20109;-76
2021/11/14 12:12:33;;;;;;;16.17;7.43;;;11.30;99.90;;;;;;5056831;28;20071;-75
2021/11/14 12:15:16;;;;;;;18.10;7.28;;;11.30;99.90;;;;;;5056484;28;20025;-78
2021/11/14 12:17:59;;;;;;;15.10;6.38;;;11.30;99.90;;;;;;5076041;28;20021;-77
2021/11/14 12:20:43;;;;;;;14.40;6.65;;;11.30;99.90;;;;;;5078283;28;20023;-78
2021/11/14 12:23:27;;;;;;;14.32;6.93;;;11.30;99.90;;;;;;5076780;28;20028;-77
2021/11/14 12:25:55;;;;;;;18.20;7.05;;;11.30;99.90;;;;;;5071486;28;20024;-77
2021/11/14 12:28:26;;;;;;;14.88;6.88;;;11.30;99.90;;;;;;5056506;28;20039;-77
2021/11/14 12:30:53;;;;;;;13.95;6.03;;;11.20;99.90;;;;;;5058091;28;20025;-79
2021/11/14 12:33:26;;;;;;;14.32;6.85;;;11.30;99.90;;;;;;5058249;28;20021;-79
2021/11/14 12:36:10;;;;;;;15.57;6.25;;;11.20;99.90;;;;;;5058016;28;20029;-81
2021/11/14 12:38:36;;;;;;;17.33;6.63;;;11.30;99.90;;;;;;5057933;28;20013;-77
2021/11/14 12:41:09;;;;;;;11.95;5.88;;;11.30;99.90;;;;;;5039110;28;20025;-77